createdAt,value
2022-08-10T00:00:23.892Z,85.50
2022-08-10T00:05:13.369Z,85.79
2022-08-10T00:10:03.123Z,85.79
2022-08-10T00:14:55.286Z,85.13
2022-08-10T00:20:04.054Z,86.33
2022-08-10T00:24:57.439Z,84.94
2022-08-10T00:29:46.867Z,86.50
2022-08-10T00:34:38.948Z,85.94
2022-08-10T00:39:28.672Z,85.25
2022-08-10T00:44:18.318Z,85.61
2022-08-10T00:49:08.035Z,87.43
2022-08-10T00:54:00.153Z,86.70
2022-08-10T00:58:50.046Z,87.32
2022-08-10T01:04:40.052Z,88.00
2022-08-10T01:08:50.466Z,86.89
2022-08-10T01:13:47.280Z,87.85
2022-08-10T01:18:40.677Z,87.48
2022-08-10T01:23:53.916Z,88.40
2022-08-10T01:28:53.417Z,88.29
2022-08-10T01:33:58.419Z,88.08
2022-08-10T01:38:52.781Z,88.83
2022-08-10T01:43:45.277Z,89.22
2022-08-10T01:48:35.358Z,89.51
2022-08-10T01:53:40.164Z,89.64
2022-08-10T01:58:32.364Z,87.31
2022-08-10T02:03:22.881Z,90.00
2022-08-10T02:08:14.539Z,88.86
2022-08-10T02:13:06.916Z,90.20
2022-08-10T02:18:01.804Z,90.36
2022-08-10T02:22:54.803Z,89.88
2022-08-10T02:27:45.699Z,90.59
2022-08-10T02:32:38.790Z,89.74
2022-08-10T02:37:29.852Z,89.82
2022-08-10T02:45:23.751Z,88.95
2022-08-10T02:47:51.337Z,89.44
2022-08-10T02:52:46.442Z,91.50
2022-08-10T02:58:16.636Z,88.94
2022-08-10T03:02:55.344Z,89.06
2022-08-10T03:07:50.145Z,90.27
2022-08-10T03:12:40.544Z,89.41
2022-08-10T03:17:31.535Z,90.38
2022-08-10T03:22:21.732Z,90.48
2022-08-10T03:27:15.572Z,89.70
2022-08-10T03:32:07.083Z,92.01
2022-08-10T03:36:56.893Z,92.52
2022-08-10T03:41:54.196Z,93.17
2022-08-10T03:46:48.750Z,93.47
2022-08-10T03:51:38.487Z,92.31
2022-08-10T03:56:32.050Z,93.56
2022-08-10T04:02:44.653Z,92.97
2022-08-10T04:06:36.041Z,93.08
2022-08-10T04:11:25.519Z,93.65
2022-08-10T04:16:15.422Z,95.43
2022-08-10T04:21:07.630Z,97.60
2022-08-10T04:26:02.308Z,97.36
2022-08-10T04:30:53.271Z,99.01
2022-08-10T04:35:43.126Z,97.33
2022-08-10T04:40:32.622Z,96.31
2022-08-10T04:45:24.834Z,98.34
2022-08-10T04:50:34.305Z,100.00
2022-08-10T04:55:24.447Z,100.00
2022-08-10T05:00:19.196Z,100.00
2022-08-10T05:05:11.958Z,98.39
2022-08-10T05:10:06.089Z,99.47
2022-08-10T05:14:58.069Z,99.91
2022-08-10T05:20:03.757Z,100.00
2022-08-10T05:24:58.010Z,100.00
2022-08-10T05:30:02.590Z,100.00
2022-08-10T05:34:52.445Z,100.00
2022-08-10T05:39:42.078Z,100.00
2022-08-10T05:44:37.204Z,100.00
2022-08-10T05:49:30.363Z,100.00
2022-08-10T05:54:30.227Z,100.00
2022-08-10T06:00:30.846Z,100.00
2022-08-10T06:04:49.554Z,100.00
2022-08-10T06:09:59.015Z,100.00
2022-08-10T06:15:06.001Z,100.00
2022-08-10T06:20:03.223Z,100.00
2022-08-10T06:25:26.922Z,100.00
2022-08-10T06:30:19.878Z,100.00
2022-08-10T06:35:22.753Z,100.00
2022-08-10T06:40:13.472Z,100.00
2022-08-10T06:45:06.099Z,100.00
2022-08-10T06:49:59.798Z,100.00
2022-08-10T06:54:57.139Z,100.00
2022-08-10T06:59:49.385Z,100.00
2022-08-10T07:04:43.258Z,100.00
2022-08-10T07:09:34.895Z,100.00
2022-08-10T07:14:28.720Z,100.00
2022-08-10T07:19:18.893Z,100.00
2022-08-10T07:24:09.551Z,100.00
2022-08-10T07:28:59.950Z,100.00
2022-08-10T07:33:55.301Z,100.00
2022-08-10T07:38:49.162Z,100.00
2022-08-10T07:43:40.482Z,100.00
2022-08-10T07:48:32.763Z,100.00
2022-08-10T07:53:27.092Z,100.00
2022-08-10T07:58:18.870Z,99.87
2022-08-10T08:03:09.474Z,97.28
2022-08-10T08:08:00.131Z,96.61
2022-08-10T08:12:53.391Z,96.30
2022-08-10T08:17:43.949Z,94.41
2022-08-10T08:24:05.241Z,90.61
2022-08-10T08:27:47.893Z,90.01
2022-08-10T08:32:42.125Z,87.77
2022-08-10T08:38:32.043Z,84.27
2022-08-10T08:42:57.927Z,86.03
2022-08-10T08:48:06.468Z,82.20
2022-08-10T08:53:00.294Z,82.16
2022-08-10T08:57:56.372Z,81.68
2022-08-10T09:02:55.017Z,78.33
2022-08-10T09:08:03.534Z,77.34
2022-08-10T09:12:57.394Z,72.91
2022-08-10T09:17:53.410Z,71.18
2022-08-10T09:22:45.216Z,71.01
2022-08-10T09:27:37.369Z,67.96
2022-08-10T09:36:15.490Z,70.32
2022-08-10T09:38:03.188Z,72.05
2022-08-10T09:43:23.543Z,63.55
2022-08-10T09:48:14.010Z,60.57
2022-08-10T09:53:08.505Z,60.13
2022-08-10T09:58:07.698Z,67.09
2022-08-10T10:03:17.051Z,59.93
2022-08-10T10:08:14.014Z,58.95
2022-08-10T10:13:06.305Z,53.53
2022-08-10T10:18:16.735Z,54.14
2022-08-10T10:23:10.914Z,55.95
2022-08-10T10:28:08.776Z,57.31
2022-08-10T10:33:02.281Z,51.74
2022-08-10T10:38:01.356Z,50.31
2022-08-10T10:42:58.844Z,50.12
2022-08-10T10:47:58.291Z,51.55
2022-08-10T10:52:52.413Z,46.11
2022-08-10T10:57:58.643Z,49.63
2022-08-10T11:02:57.308Z,50.35
2022-08-10T11:08:01.081Z,47.29
2022-08-10T11:13:03.038Z,47.61
2022-08-10T11:18:14.123Z,46.43
2022-08-10T11:23:15.900Z,42.84
2022-08-10T11:28:11.228Z,41.18
2022-08-10T11:33:09.923Z,44.34
2022-08-10T11:38:31.368Z,43.88
2022-08-10T11:43:19.211Z,42.54
2022-08-10T11:48:53.240Z,44.38
2022-08-10T11:53:25.803Z,44.68
2022-08-10T11:58:30.752Z,42.19
2022-08-10T12:03:21.417Z,42.79
2022-08-10T12:10:02.575Z,40.83
2022-08-10T12:13:26.908Z,39.61
2022-08-10T12:18:18.069Z,37.78
2022-08-10T12:23:13.216Z,39.24
2022-08-10T12:28:05.091Z,38.06
2022-08-10T12:32:59.371Z,35.67
2022-08-10T12:37:51.681Z,37.75
2022-08-10T12:42:45.192Z,34.37
2022-08-10T12:47:55.931Z,36.67
2022-08-10T12:52:54.228Z,35.15
2022-08-10T12:57:44.676Z,34.15
2022-08-10T13:02:35.398Z,34.53
2022-08-10T13:08:25.579Z,35.67
2022-08-10T13:12:40.720Z,35.16
2022-08-10T13:17:39.608Z,36.29
2022-08-10T13:22:31.957Z,35.28
2022-08-10T13:28:00.547Z,32.62
2022-08-10T13:32:40.624Z,35.34
2022-08-10T13:37:31.252Z,34.22
2022-08-10T13:42:31.913Z,33.67
2022-08-10T13:47:23.083Z,34.84
2022-08-10T13:52:17.946Z,36.15
2022-08-10T13:57:08.475Z,31.91
2022-08-10T14:01:59.080Z,30.41
2022-08-10T14:06:53.026Z,35.25
2022-08-10T14:11:45.937Z,33.92
2022-08-10T14:16:36.324Z,30.46
2022-08-10T14:21:25.852Z,31.35
2022-08-10T14:26:18.927Z,30.78
2022-08-10T14:31:12.946Z,33.81
2022-08-10T14:36:22.584Z,33.58
2022-08-10T14:42:01.868Z,29.15
2022-08-10T14:46:34.170Z,28.55
2022-08-10T14:51:44.422Z,32.82
2022-08-10T14:56:38.931Z,29.89
2022-08-10T15:02:00.563Z,28.37
2022-08-10T15:06:42.464Z,29.92
2022-08-10T15:12:11.899Z,26.46
2022-08-10T15:16:46.373Z,31.26
2022-08-10T15:21:43.888Z,31.16
2022-08-10T15:26:34.660Z,28.51
2022-08-10T15:31:26.023Z,30.27
2022-08-10T15:36:34.881Z,28.97
2022-08-10T15:41:58.834Z,31.90
2022-08-10T15:46:49.279Z,31.40
2022-08-10T15:51:53.482Z,33.03
2022-08-10T15:56:46.695Z,34.84
2022-08-10T16:02:12.777Z,37.46
2022-08-10T16:06:51.967Z,39.14
2022-08-10T16:11:43.860Z,38.70
2022-08-10T16:16:35.410Z,39.81
2022-08-10T16:21:26.950Z,41.05
2022-08-10T16:26:21.028Z,41.53
2022-08-10T16:31:16.030Z,41.53
2022-08-10T16:36:07.379Z,42.36
2022-08-10T16:40:58.107Z,43.55
2022-08-10T16:45:51.589Z,43.88
2022-08-10T16:50:45.422Z,44.19
2022-08-10T16:55:48.504Z,44.60
2022-08-10T17:00:40.239Z,44.41
2022-08-10T17:06:03.389Z,44.91
2022-08-10T17:10:44.066Z,45.71
2022-08-10T17:15:33.944Z,45.47
2022-08-10T17:20:30.419Z,46.19
2022-08-10T17:25:48.393Z,46.53
2022-08-10T17:30:57.260Z,46.87
2022-08-10T17:35:50.109Z,46.24
2022-08-10T17:40:49.073Z,46.90
2022-08-10T17:45:47.640Z,46.98
2022-08-10T17:50:41.047Z,47.34
2022-08-10T17:55:42.426Z,47.87
2022-08-10T18:00:35.984Z,47.96
2022-08-10T18:05:25.750Z,48.48
2022-08-10T18:10:17.917Z,48.65
2022-08-10T18:15:12.136Z,49.40
2022-08-10T18:20:07.141Z,49.41
2022-08-10T18:24:59.976Z,49.97
2022-08-10T18:29:51.316Z,50.75
2022-08-10T18:34:41.643Z,50.83
2022-08-10T18:39:36.575Z,51.58
2022-08-10T18:44:31.297Z,51.74
2022-08-10T18:49:22.665Z,51.98
2022-08-10T18:54:38.897Z,53.21
2022-08-10T19:00:08.447Z,53.28
2022-08-10T19:05:31.061Z,53.41
2022-08-10T19:10:30.734Z,54.15
2022-08-10T19:15:30.249Z,54.77
2022-08-10T19:20:29.691Z,55.44
2022-08-10T19:26:40.955Z,56.17
2022-08-10T19:30:53.375Z,56.92
2022-08-10T19:36:03.701Z,57.65
2022-08-10T19:41:09.967Z,58.14
2022-08-10T19:46:14.337Z,58.88
2022-08-10T19:51:15.837Z,60.14
2022-08-10T19:56:31.000Z,60.53
2022-08-10T20:01:54.380Z,60.91
2022-08-10T20:06:49.426Z,58.49
2022-08-10T20:11:47.426Z,59.28
2022-08-10T20:16:46.010Z,59.62
2022-08-10T20:21:49.510Z,60.64
2022-08-10T20:26:49.883Z,61.48
2022-08-10T20:31:43.816Z,64.08
2022-08-10T20:36:39.584Z,65.56
2022-08-10T20:41:46.191Z,65.26
2022-08-10T20:46:38.616Z,66.06
2022-08-10T20:51:58.882Z,66.28
2022-08-10T20:56:52.120Z,68.04
2022-08-10T21:02:06.163Z,67.87
2022-08-10T21:07:07.611Z,67.50
2022-08-10T21:12:32.111Z,66.34
2022-08-10T21:17:37.297Z,66.74
2022-08-10T21:22:29.415Z,66.46
2022-08-10T21:27:33.897Z,67.73
2022-08-10T21:32:27.491Z,67.35
2022-08-10T21:37:20.523Z,68.54
2022-08-10T21:42:26.316Z,68.58
2022-08-10T21:47:41.928Z,68.82
2022-08-10T21:53:00.863Z,69.58
2022-08-10T21:58:09.186Z,69.74
2022-08-10T22:03:12.839Z,68.57
2022-08-10T22:08:23.623Z,68.06
2022-08-10T22:13:32.639Z,69.54
2022-08-10T22:18:39.967Z,69.72
2022-08-10T22:24:16.774Z,70.09
2022-08-10T22:29:22.202Z,69.97
2022-08-10T22:34:37.496Z,68.92
2022-08-10T22:40:11.355Z,68.89
2022-08-10T22:45:15.310Z,68.35
2022-08-10T22:50:08.485Z,68.21
2022-08-10T22:55:18.156Z,67.75
2022-08-10T23:00:15.801Z,66.33
2022-08-10T23:05:08.559Z,67.62
2022-08-10T23:10:06.723Z,67.84
2022-08-10T23:15:09.928Z,67.55
2022-08-10T23:20:04.303Z,67.42
2022-08-10T23:24:55.190Z,65.99
2022-08-10T23:30:10.182Z,64.54
2022-08-10T23:36:31.881Z,63.94
2022-08-10T23:40:13.714Z,62.45
2022-08-10T23:45:06.657Z,62.71
2022-08-10T23:49:57.905Z,62.53
2022-08-10T23:54:54.525Z,62.89
2022-08-10T23:59:44.653Z,63.61
